createdAt,value
2017-10-23T00:00:36.248Z,66.30
2017-10-23T00:03:03.328Z,66.30
2017-10-23T00:05:29.683Z,66.30
2017-10-23T00:07:55.958Z,66.20
2017-10-23T00:10:22.926Z,66.30
2017-10-23T00:12:49.112Z,66.30
2017-10-23T00:15:16.043Z,66.20
2017-10-23T00:17:42.268Z,66.20
2017-10-23T00:20:08.521Z,66.70
2017-10-23T00:22:34.720Z,66.10
2017-10-23T00:25:00.889Z,66.30
2017-10-23T00:27:27.100Z,66.00
2017-10-23T00:29:53.313Z,66.30
2017-10-23T00:32:19.659Z,65.90
2017-10-23T00:34:45.940Z,66.10
2017-10-23T00:37:12.174Z,66.00
2017-10-23T00:39:38.346Z,65.90
2017-10-23T00:42:05.553Z,65.80
2017-10-23T00:44:31.789Z,65.90
2017-10-23T00:46:58.182Z,65.80
2017-10-23T00:49:25.082Z,65.90
2017-10-23T00:51:51.258Z,65.80
2017-10-23T00:54:17.532Z,66.40
2017-10-23T00:56:43.796Z,65.80
2017-10-23T00:59:10.026Z,65.90
2017-10-23T01:01:36.213Z,65.10
2017-10-23T01:04:02.447Z,65.40
2017-10-23T01:06:28.642Z,65.60
2017-10-23T01:08:54.870Z,65.50
2017-10-23T01:11:21.090Z,65.30
2017-10-23T01:13:47.310Z,65.30
2017-10-23T01:16:13.647Z,65.60
2017-10-23T01:18:40.702Z,65.30
2017-10-23T01:21:07.676Z,65.40
2017-10-23T01:23:33.974Z,65.40
2017-10-23T01:26:00.911Z,65.30
2017-10-23T01:28:27.122Z,65.30
2017-10-23T01:30:53.449Z,65.10
2017-10-23T01:33:19.789Z,65.20
2017-10-23T01:35:46.000Z,65.30
2017-10-23T01:38:12.259Z,65.60
2017-10-23T01:40:38.456Z,65.70
2017-10-23T01:43:05.459Z,65.40
2017-10-23T01:45:31.697Z,65.40
2017-10-23T01:47:57.932Z,65.40
2017-10-23T01:50:24.241Z,65.80
2017-10-23T01:52:51.174Z,65.50
2017-10-23T01:55:17.526Z,65.50
2017-10-23T01:57:43.774Z,65.50
2017-10-23T02:00:10.033Z,65.50
2017-10-23T02:02:36.217Z,66.00
2017-10-23T02:05:03.267Z,65.60
2017-10-23T02:07:29.625Z,65.60
2017-10-23T02:09:55.878Z,65.70
2017-10-23T02:12:22.928Z,65.60
2017-10-23T02:14:49.157Z,65.60
2017-10-23T02:17:15.365Z,66.10
2017-10-23T02:19:41.606Z,65.70
2017-10-23T02:22:07.828Z,65.50
2017-10-23T02:24:34.186Z,65.70
2017-10-23T02:27:01.115Z,66.00
2017-10-23T02:29:27.446Z,66.10
2017-10-23T02:31:53.663Z,66.20
2017-10-23T02:34:19.996Z,66.00
2017-10-23T02:36:46.398Z,66.00
2017-10-23T02:39:13.051Z,65.90
2017-10-23T02:41:39.287Z,65.50
2017-10-23T02:44:05.519Z,66.00
2017-10-23T02:46:32.507Z,65.50
2017-10-23T02:48:58.705Z,65.40
2017-10-23T02:51:25.235Z,65.50
2017-10-23T02:53:51.475Z,65.40
2017-10-23T02:56:17.669Z,65.10
2017-10-23T02:58:43.946Z,64.90
2017-10-23T03:01:10.186Z,64.60
2017-10-23T03:03:36.404Z,64.80
2017-10-23T03:06:02.719Z,64.80
2017-10-23T03:08:28.942Z,64.10
2017-10-23T03:10:55.161Z,64.60
2017-10-23T03:13:22.335Z,64.60
2017-10-23T03:15:48.769Z,64.60
2017-10-23T03:18:15.125Z,64.40
2017-10-23T03:20:41.369Z,65.00
2017-10-23T03:23:07.550Z,64.70
2017-10-23T03:25:33.777Z,64.80
2017-10-23T03:28:00.002Z,65.10
2017-10-23T03:30:27.035Z,64.90
2017-10-23T03:32:53.281Z,65.30
2017-10-23T03:35:19.518Z,65.10
2017-10-23T03:37:46.529Z,66.20
2017-10-23T03:40:12.793Z,65.20
2017-10-23T03:42:39.004Z,65.40
2017-10-23T03:45:05.264Z,65.50
2017-10-23T03:47:31.454Z,65.70
2017-10-23T03:49:57.837Z,65.80
2017-10-23T03:52:24.122Z,65.70
2017-10-23T03:54:50.377Z,65.10
2017-10-23T03:57:16.588Z,65.30
2017-10-23T03:59:42.831Z,65.10
2017-10-23T04:02:09.030Z,65.10
2017-10-23T04:04:36.012Z,64.70
2017-10-23T04:07:02.266Z,64.60
2017-10-23T04:09:28.529Z,64.40
2017-10-23T04:11:55.023Z,64.20
2017-10-23T04:14:21.318Z,63.70
2017-10-23T04:16:47.828Z,64.20
2017-10-23T04:19:14.230Z,64.20
2017-10-23T04:21:40.669Z,63.70
2017-10-23T04:24:06.969Z,63.70
2017-10-23T04:26:33.213Z,64.20
2017-10-23T04:28:59.549Z,64.20
2017-10-23T04:31:25.794Z,64.10
2017-10-23T04:33:52.826Z,64.60
2017-10-23T04:36:19.124Z,64.50
2017-10-23T04:38:45.451Z,64.40
2017-10-23T04:41:11.727Z,64.10
2017-10-23T04:43:38.013Z,64.60
2017-10-23T04:46:04.294Z,64.10
2017-10-23T04:48:30.609Z,63.80
2017-10-23T04:50:56.850Z,64.10
2017-10-23T04:53:24.074Z,64.90
2017-10-23T04:55:50.343Z,64.50
2017-10-23T04:58:16.668Z,64.10
2017-10-23T05:00:42.929Z,63.70
2017-10-23T05:03:09.185Z,64.40
2017-10-23T05:05:35.451Z,64.10
2017-10-23T05:08:01.646Z,64.10
2017-10-23T05:10:27.917Z,64.10
2017-10-23T05:12:54.135Z,64.10
2017-10-23T05:15:20.410Z,64.40
2017-10-23T05:17:46.690Z,63.70
2017-10-23T05:20:12.916Z,64.10
2017-10-23T05:22:39.154Z,64.00
2017-10-23T05:25:05.400Z,64.40
2017-10-23T05:27:31.684Z,64.50
2017-10-23T05:29:58.678Z,64.50
2017-10-23T05:32:24.939Z,64.60
2017-10-23T05:34:51.155Z,64.50
2017-10-23T05:37:17.440Z,64.50
2017-10-23T05:39:44.445Z,64.40
2017-10-23T05:42:10.749Z,64.30
2017-10-23T05:44:36.970Z,64.90
2017-10-23T05:47:03.197Z,65.00
2017-10-23T05:49:29.415Z,64.30
2017-10-23T05:51:55.712Z,64.40
2017-10-23T05:54:21.928Z,64.80
2017-10-23T05:56:48.147Z,64.80
2017-10-23T05:59:14.365Z,65.00
2017-10-23T06:01:40.600Z,64.50
2017-10-23T06:04:07.557Z,64.70
2017-10-23T06:06:33.778Z,64.70
2017-10-23T06:09:00.071Z,64.80
2017-10-23T06:11:26.412Z,65.30
2017-10-23T06:13:53.403Z,65.50
2017-10-23T06:16:19.718Z,65.50
2017-10-23T06:18:46.749Z,65.20
2017-10-23T06:21:13.047Z,65.20
2017-10-23T06:23:39.306Z,65.70
2017-10-23T06:26:05.592Z,65.70
2017-10-23T06:28:31.916Z,65.40
2017-10-23T06:30:58.210Z,65.70
2017-10-23T06:33:24.514Z,65.50
2017-10-23T06:35:50.816Z,65.30
2017-10-23T06:38:17.510Z,65.20
2017-10-23T06:40:43.802Z,65.30
2017-10-23T06:43:10.151Z,64.90
2017-10-23T06:45:37.197Z,65.10
2017-10-23T06:48:04.654Z,65.10
2017-10-23T06:50:30.937Z,65.20
2017-10-23T06:52:57.225Z,65.20
2017-10-23T06:55:23.438Z,65.00
2017-10-23T06:57:50.687Z,64.50
2017-10-23T07:00:16.890Z,64.90
2017-10-23T07:02:43.169Z,64.40
2017-10-23T07:05:09.426Z,64.70
2017-10-23T07:07:35.705Z,64.60
2017-10-23T07:10:02.059Z,64.80
2017-10-23T07:12:28.310Z,64.30
2017-10-23T07:14:54.607Z,64.70
2017-10-23T07:17:21.575Z,64.20
2017-10-23T07:19:47.878Z,64.20
2017-10-23T07:22:14.125Z,63.90
2017-10-23T07:24:40.333Z,64.10
2017-10-23T07:27:10.561Z,64.20
2017-10-23T07:29:36.817Z,63.40
2017-10-23T07:32:03.057Z,63.60
2017-10-23T07:34:29.286Z,63.60
2017-10-23T07:36:55.543Z,63.80
2017-10-23T07:39:22.634Z,63.90
2017-10-23T07:41:48.828Z,63.80
2017-10-23T07:44:16.569Z,63.20
2017-10-23T07:46:42.853Z,63.30
2017-10-23T07:49:09.119Z,63.20
2017-10-23T07:51:35.351Z,63.20
2017-10-23T07:54:01.647Z,63.30
2017-10-23T07:56:27.880Z,63.30
2017-10-23T07:58:54.089Z,63.30
2017-10-23T08:01:20.296Z,63.30
2017-10-23T08:03:46.500Z,63.30
2017-10-23T08:06:12.783Z,63.30
2017-10-23T08:08:38.986Z,63.40
2017-10-23T08:11:05.149Z,63.40
2017-10-23T08:13:31.500Z,63.40
2017-10-23T08:15:57.764Z,63.40
2017-10-23T08:18:23.995Z,63.40
2017-10-23T08:20:50.302Z,63.50
2017-10-23T08:23:16.517Z,63.50
2017-10-23T08:25:42.696Z,63.60
2017-10-23T08:28:08.909Z,63.60
2017-10-23T08:30:35.117Z,63.10
2017-10-23T08:33:01.356Z,63.60
2017-10-23T08:35:27.510Z,62.10
2017-10-23T08:37:53.742Z,62.30
2017-10-23T08:40:20.715Z,61.50
2017-10-23T08:42:46.949Z,61.50
2017-10-23T08:45:13.120Z,61.90
2017-10-23T08:47:39.323Z,61.80
2017-10-23T08:50:05.559Z,61.80
2017-10-23T08:52:31.777Z,61.50
2017-10-23T08:54:58.017Z,61.50
2017-10-23T08:57:24.245Z,60.80
2017-10-23T08:59:50.430Z,60.30
2017-10-23T09:02:16.656Z,59.70
2017-10-23T09:04:42.921Z,59.30
2017-10-23T09:07:09.183Z,59.60
2017-10-23T09:09:35.435Z,59.40
2017-10-23T09:12:04.930Z,60.00
2017-10-23T09:14:31.177Z,59.90
2017-10-23T09:16:57.388Z,59.80
2017-10-23T09:19:23.704Z,60.00
2017-10-23T09:21:49.930Z,59.00
2017-10-23T09:24:16.238Z,59.50
2017-10-23T09:26:42.483Z,59.60
2017-10-23T09:29:08.747Z,59.70
2017-10-23T09:31:35.182Z,59.30
2017-10-23T09:34:01.516Z,59.20
2017-10-23T09:36:44.590Z,59.40
2017-10-23T09:39:10.883Z,59.00
2017-10-23T09:41:37.093Z,59.10
2017-10-23T09:44:04.127Z,58.50
2017-10-23T09:46:31.082Z,58.20
2017-10-23T09:48:57.354Z,58.10
2017-10-23T09:51:25.732Z,57.90
2017-10-23T09:53:52.902Z,58.30
2017-10-23T09:56:19.163Z,58.50
2017-10-23T09:58:45.417Z,58.30
2017-10-23T10:01:11.691Z,58.00
2017-10-23T10:03:38.005Z,57.80
2017-10-23T10:06:04.266Z,57.30
2017-10-23T10:08:35.044Z,57.30
2017-10-23T10:11:01.303Z,56.30
2017-10-23T10:13:27.540Z,56.60
2017-10-23T10:15:53.834Z,56.30
2017-10-23T10:18:20.051Z,56.00
2017-10-23T10:20:46.278Z,55.50
2017-10-23T10:23:12.475Z,55.20
2017-10-23T10:25:38.763Z,55.20
2017-10-23T10:28:06.011Z,54.50
2017-10-23T10:30:32.270Z,54.40
2017-10-23T10:32:58.503Z,54.50
2017-10-23T10:35:25.731Z,54.40
2017-10-23T10:37:52.842Z,54.40
2017-10-23T10:40:19.841Z,54.50
2017-10-23T10:42:46.064Z,54.50
2017-10-23T10:45:12.311Z,54.60
2017-10-23T10:47:38.577Z,54.50
2017-10-23T10:50:04.826Z,54.40
2017-10-23T10:52:39.108Z,54.10
2017-10-23T10:55:14.665Z,54.40
2017-10-23T10:57:40.908Z,54.50
2017-10-23T11:00:07.237Z,54.60
2017-10-23T11:02:33.503Z,54.70
2017-10-23T11:04:59.797Z,54.80
2017-10-23T11:07:26.001Z,54.80
2017-10-23T11:09:52.285Z,54.20
2017-10-23T11:12:18.540Z,54.00
2017-10-23T11:14:44.913Z,53.90
2017-10-23T11:17:11.905Z,53.80
2017-10-23T11:19:38.159Z,53.80
2017-10-23T11:22:04.371Z,53.60
2017-10-23T11:24:30.739Z,54.00
2017-10-23T11:26:56.968Z,53.50
2017-10-23T11:29:23.173Z,52.60
2017-10-23T11:31:49.474Z,53.20
2017-10-23T11:34:16.458Z,53.20
2017-10-23T11:36:42.746Z,53.20
2017-10-23T11:39:08.969Z,53.10
2017-10-23T11:41:35.354Z,53.50
2017-10-23T11:44:01.618Z,52.80
2017-10-23T11:46:27.817Z,53.90
2017-10-23T11:48:54.084Z,53.70
2017-10-23T11:51:20.377Z,53.60
2017-10-23T11:53:46.572Z,52.70
2017-10-23T11:56:12.836Z,52.80
2017-10-23T11:58:40.018Z,52.90
2017-10-23T12:01:06.268Z,52.90
2017-10-23T12:03:32.529Z,53.30
2017-10-23T12:05:58.759Z,53.10
2017-10-23T12:08:24.966Z,54.20
2017-10-23T12:10:51.575Z,54.00
2017-10-23T12:13:18.077Z,54.60
2017-10-23T12:15:44.353Z,57.20
2017-10-23T12:18:10.577Z,58.00
2017-10-23T12:20:36.867Z,59.50
2017-10-23T12:23:03.126Z,59.20
2017-10-23T12:25:29.460Z,59.00
2017-10-23T12:27:55.711Z,59.90
2017-10-23T12:30:21.959Z,60.00
2017-10-23T12:33:02.429Z,60.00
2017-10-23T12:35:28.879Z,59.50
2017-10-23T12:37:55.132Z,59.80
2017-10-23T12:40:22.138Z,60.50
2017-10-23T12:42:49.179Z,58.60
2017-10-23T12:45:15.897Z,58.70
2017-10-23T12:47:42.186Z,59.80
2017-10-23T12:50:08.425Z,59.40
2017-10-23T12:52:34.710Z,58.70
2017-10-23T12:55:00.975Z,59.20
2017-10-23T12:57:52.293Z,58.80
2017-10-23T13:00:35.563Z,59.10
2017-10-23T13:03:01.846Z,58.40
2017-10-23T13:05:28.395Z,58.40
2017-10-23T13:07:59.833Z,58.70
2017-10-23T13:10:26.254Z,56.80
2017-10-23T13:13:05.533Z,58.40
2017-10-23T13:15:31.818Z,59.00
2017-10-23T13:17:58.829Z,57.70
2017-10-23T13:20:25.090Z,57.70
2017-10-23T13:22:51.352Z,58.00
2017-10-23T13:25:17.593Z,58.00
2017-10-23T13:27:43.867Z,58.70
2017-10-23T13:30:10.207Z,59.00
2017-10-23T13:32:38.104Z,57.40
2017-10-23T13:35:04.393Z,58.20
2017-10-23T13:37:30.688Z,57.90
2017-10-23T13:40:00.882Z,57.70
2017-10-23T13:42:31.173Z,56.60
2017-10-23T13:45:07.264Z,56.60
2017-10-23T13:47:34.420Z,57.10
2017-10-23T13:50:04.657Z,57.00
2017-10-23T13:52:34.539Z,57.10
2017-10-23T13:58:03.576Z,56.20
2017-10-23T14:00:29.793Z,55.40
2017-10-23T14:05:31.672Z,55.10
2017-10-23T14:08:07.905Z,55.10
2017-10-23T14:10:35.527Z,55.10
2017-10-23T14:13:02.066Z,55.00
2017-10-23T14:15:37.032Z,55.10
2017-10-23T14:18:03.582Z,55.10
2017-10-23T14:20:29.835Z,55.40
2017-10-23T14:22:57.029Z,55.10
2017-10-23T14:25:23.324Z,55.00
2017-10-23T14:27:49.607Z,55.00
2017-10-23T14:30:15.832Z,55.00
2017-10-23T14:32:42.117Z,55.50
2017-10-23T14:35:08.362Z,55.60
2017-10-23T14:40:37.305Z,55.00
2017-10-23T14:43:04.592Z,55.00
2017-10-23T14:45:44.730Z,55.00
2017-10-23T14:48:18.049Z,54.30
2017-10-23T14:50:44.306Z,54.20
2017-10-23T14:53:10.630Z,55.00
2017-10-23T14:55:36.925Z,53.30
2017-10-23T14:58:03.262Z,53.20
2017-10-23T15:00:29.516Z,55.00
2017-10-23T15:02:59.275Z,54.20
2017-10-23T15:05:25.598Z,53.80
2017-10-23T15:07:51.882Z,53.20
2017-10-23T15:10:18.122Z,54.00
2017-10-23T15:12:46.594Z,54.10
2017-10-23T15:15:12.937Z,53.60
2017-10-23T15:17:39.198Z,54.10
2017-10-23T15:20:05.486Z,52.80
2017-10-23T15:22:31.743Z,53.50
2017-10-23T15:24:58.038Z,53.10
2017-10-23T15:27:24.263Z,53.10
2017-10-23T15:29:51.241Z,53.20
2017-10-23T15:32:17.913Z,53.20
2017-10-23T15:34:44.895Z,53.50
2017-10-23T15:37:11.135Z,53.50
2017-10-23T15:39:37.405Z,53.60
2017-10-23T15:42:03.662Z,53.50
2017-10-23T15:44:42.690Z,54.10
2017-10-23T15:47:09.083Z,53.90
2017-10-23T15:52:13.889Z,54.60
2017-10-23T15:54:40.218Z,53.50
2017-10-23T15:57:06.869Z,53.90
2017-10-23T15:59:33.246Z,54.60
2017-10-23T16:01:59.490Z,54.60
2017-10-23T16:04:27.455Z,53.70
2017-10-23T16:06:53.816Z,53.80
2017-10-23T16:09:20.083Z,54.10
2017-10-23T16:11:46.399Z,53.50
2017-10-23T16:14:13.654Z,54.40
2017-10-23T16:16:39.919Z,53.20
2017-10-23T16:19:06.230Z,53.40
2017-10-23T16:21:32.636Z,53.80
2017-10-23T16:23:58.952Z,54.20
2017-10-23T16:26:42.595Z,53.70
2017-10-23T16:29:09.181Z,54.20
2017-10-23T16:34:28.287Z,54.80
2017-10-23T16:36:54.677Z,54.50
2017-10-23T16:39:21.021Z,54.40
2017-10-23T16:41:47.599Z,54.90
2017-10-23T16:44:13.925Z,54.40
2017-10-23T16:46:40.418Z,54.50
2017-10-23T16:49:09.540Z,54.50
2017-10-23T16:51:48.840Z,54.60
2017-10-23T16:54:18.412Z,54.40
2017-10-23T16:57:05.641Z,54.70
2017-10-23T16:59:31.945Z,54.70
2017-10-23T17:04:46.613Z,54.70
2017-10-23T17:07:27.554Z,54.60
2017-10-23T17:09:54.310Z,54.70
2017-10-23T17:12:47.543Z,54.70
2017-10-23T17:15:13.835Z,54.80
2017-10-23T17:20:43.145Z,55.00
2017-10-23T17:23:12.505Z,54.80
2017-10-23T17:25:38.881Z,55.30
2017-10-23T17:28:05.182Z,55.30
2017-10-23T17:30:31.440Z,54.90
2017-10-23T17:32:57.634Z,55.20
2017-10-23T17:35:24.213Z,55.40
2017-10-23T17:37:50.449Z,55.60
2017-10-23T17:40:17.603Z,55.50
2017-10-23T17:42:43.832Z,55.60
2017-10-23T17:45:10.082Z,55.80
2017-10-23T17:47:36.305Z,55.30
2017-10-23T17:50:03.549Z,55.40
2017-10-23T17:52:29.869Z,55.70
2017-10-23T17:54:56.306Z,55.70
2017-10-23T17:57:22.578Z,56.40
2017-10-23T17:59:48.913Z,55.90
2017-10-23T18:02:15.195Z,55.90
2017-10-23T18:04:41.715Z,55.70
2017-10-23T18:07:09.280Z,56.20
2017-10-23T18:09:39.498Z,56.10
2017-10-23T18:12:06.061Z,56.00
2017-10-23T18:14:32.433Z,56.00
2017-10-23T18:16:58.685Z,56.40
2017-10-23T18:19:25.031Z,56.70
2017-10-23T18:21:51.492Z,56.60
2017-10-23T18:24:26.905Z,56.10
2017-10-23T18:26:54.179Z,56.00
2017-10-23T18:29:20.661Z,56.40
2017-10-23T18:31:46.926Z,57.00
2017-10-23T18:34:15.081Z,56.90
2017-10-23T18:36:41.324Z,56.80
2017-10-23T18:39:07.554Z,57.40
2017-10-23T18:41:33.957Z,56.90
2017-10-23T18:44:01.214Z,57.40
2017-10-23T18:46:27.513Z,57.50
2017-10-23T18:48:53.722Z,57.60
2017-10-23T18:51:20.574Z,57.50
2017-10-23T18:53:46.962Z,57.60
2017-10-23T18:56:13.215Z,57.20
2017-10-23T18:58:39.434Z,57.60
2017-10-23T19:01:06.468Z,57.10
2017-10-23T19:03:33.047Z,57.10
2017-10-23T19:05:59.352Z,57.30
2017-10-23T19:08:25.970Z,57.40
2017-10-23T19:10:52.206Z,57.10
2017-10-23T19:13:18.441Z,57.10
2017-10-23T19:15:44.686Z,57.40
2017-10-23T19:18:10.933Z,57.50
2017-10-23T19:20:37.149Z,57.50
2017-10-23T19:23:03.365Z,57.20
2017-10-23T19:25:29.685Z,57.40
2017-10-23T19:27:55.954Z,57.70
2017-10-23T19:30:22.969Z,57.80
2017-10-23T19:32:49.962Z,57.80
2017-10-23T19:35:16.201Z,57.70
2017-10-23T19:37:43.278Z,58.00
2017-10-23T19:40:10.124Z,58.10
2017-10-23T19:42:36.342Z,58.20
2017-10-23T19:45:02.583Z,58.40
2017-10-23T19:47:28.775Z,58.30
2017-10-23T19:49:54.956Z,58.20
2017-10-23T19:52:21.225Z,58.30
2017-10-23T19:54:47.409Z,58.60
2017-10-23T19:57:13.619Z,58.20
2017-10-23T19:59:39.888Z,58.40
2017-10-23T20:02:06.173Z,58.60
2017-10-23T20:04:32.397Z,58.70
2017-10-23T20:06:58.652Z,58.90
2017-10-23T20:09:24.883Z,58.90
2017-10-23T20:11:51.127Z,58.90
2017-10-23T20:14:17.360Z,58.90
2017-10-23T20:16:43.642Z,58.90
2017-10-23T20:19:09.896Z,59.20
2017-10-23T20:21:36.912Z,59.20
2017-10-23T20:24:03.249Z,59.20
2017-10-23T20:26:30.529Z,59.20
2017-10-23T20:28:58.386Z,59.40
2017-10-23T20:31:24.711Z,59.50
2017-10-23T20:33:56.217Z,59.60
2017-10-23T20:36:22.604Z,59.70
2017-10-23T20:38:49.336Z,59.60
2017-10-23T20:41:15.838Z,59.90
2017-10-23T20:43:42.454Z,60.00
2017-10-23T20:46:09.494Z,59.90
2017-10-23T20:48:39.119Z,59.90
2017-10-23T20:51:05.611Z,59.80
2017-10-23T20:53:32.095Z,60.00
2017-10-23T20:55:58.344Z,60.30
2017-10-23T20:58:24.858Z,60.40
2017-10-23T21:00:56.876Z,60.10
2017-10-23T21:03:25.298Z,60.30
2017-10-23T21:05:51.627Z,60.50
2017-10-23T21:08:18.946Z,60.50
2017-10-23T21:10:45.222Z,60.50
2017-10-23T21:13:11.479Z,60.60
2017-10-23T21:15:38.187Z,60.80
2017-10-23T21:18:05.250Z,61.00
2017-10-23T21:20:32.349Z,61.00
2017-10-23T21:23:00.693Z,61.30
2017-10-23T21:25:26.919Z,61.30
2017-10-23T21:27:53.148Z,61.30
2017-10-23T21:30:19.456Z,61.70
2017-10-23T21:32:45.901Z,61.60
2017-10-23T21:35:14.333Z,61.70
2017-10-23T21:37:40.737Z,61.60
2017-10-23T21:40:07.184Z,61.40
2017-10-23T21:42:33.668Z,61.80
2017-10-23T21:50:14.019Z,61.90
2017-10-23T21:52:41.182Z,62.30
2017-10-23T21:55:08.509Z,62.20
2017-10-23T21:57:35.177Z,62.30
2017-10-23T22:00:01.785Z,62.30
2017-10-23T22:02:28.107Z,62.10
2017-10-23T22:04:54.374Z,62.30
2017-10-23T22:07:20.607Z,62.40
2017-10-23T22:09:46.987Z,62.50
2017-10-23T22:12:13.209Z,62.70
2017-10-23T22:14:39.742Z,62.30
2017-10-23T22:17:06.038Z,62.50
2017-10-23T22:19:32.254Z,62.60
2017-10-23T22:21:58.484Z,62.90
2017-10-23T22:24:25.627Z,62.70
2017-10-23T22:26:52.986Z,62.80
2017-10-23T22:29:19.277Z,62.70
2017-10-23T22:31:45.809Z,62.70
2017-10-23T22:34:12.094Z,63.10
2017-10-23T22:36:38.346Z,63.10
2017-10-23T22:39:05.381Z,63.80
2017-10-23T22:41:31.586Z,63.80
2017-10-23T22:43:58.586Z,63.80
2017-10-23T22:46:24.843Z,63.80
2017-10-23T22:48:51.080Z,63.80
2017-10-23T22:51:17.399Z,63.70
2017-10-23T22:53:43.635Z,63.90
2017-10-23T22:56:09.870Z,64.40
2017-10-23T22:58:36.539Z,65.40
2017-10-23T23:01:03.611Z,64.90
2017-10-23T23:03:29.942Z,64.90
2017-10-23T23:05:56.213Z,65.00
2017-10-23T23:08:22.992Z,65.20
2017-10-23T23:10:50.119Z,65.50
2017-10-23T23:13:16.386Z,65.50
2017-10-23T23:15:42.641Z,65.40
2017-10-23T23:18:08.910Z,65.70
2017-10-23T23:20:35.234Z,65.50
2017-10-23T23:23:01.579Z,65.40
2017-10-23T23:25:28.349Z,65.60
2017-10-23T23:27:54.679Z,65.80
2017-10-23T23:30:21.012Z,65.90
2017-10-23T23:32:47.272Z,66.20
2017-10-23T23:35:14.272Z,66.40
2017-10-23T23:37:40.682Z,66.40
2017-10-23T23:40:06.938Z,66.60
2017-10-23T23:42:34.000Z,67.00
2017-10-23T23:45:00.253Z,66.90
2017-10-23T23:47:26.576Z,66.90
2017-10-23T23:49:52.977Z,67.20
2017-10-23T23:52:19.224Z,67.40
2017-10-23T23:54:45.642Z,68.00
2017-10-23T23:57:11.910Z,68.10
2017-10-23T23:59:38.150Z,69.00
